createdAt,value
2022-12-11T00:01:51.409Z,19.90
2022-12-11T00:04:21.922Z,21.50
2022-12-11T00:06:52.416Z,29.20
2022-12-11T00:09:23.715Z,22.10
2022-12-11T00:11:54.222Z,19.70
2022-12-11T00:14:24.748Z,19.70
2022-12-11T00:16:55.319Z,22.60
2022-12-11T00:19:26.193Z,19.30
2022-12-11T00:21:56.625Z,20.70
2022-12-11T00:24:27.114Z,20.30
2022-12-11T00:26:57.862Z,18.80
2022-12-11T00:29:28.356Z,19.90
2022-12-11T00:31:58.929Z,20.00
2022-12-11T00:34:29.974Z,22.70
2022-12-11T00:37:00.611Z,25.00
2022-12-11T00:39:31.027Z,23.80
2022-12-11T00:42:01.474Z,22.70
2022-12-11T00:44:32.002Z,16.20
2022-12-11T00:47:02.505Z,22.20
2022-12-11T00:49:33.269Z,21.80
2022-12-11T00:52:03.803Z,21.60
2022-12-11T00:54:34.890Z,18.20
2022-12-11T00:57:05.534Z,21.00
2022-12-11T00:59:36.109Z,20.70
2022-12-11T01:02:06.548Z,19.80
2022-12-11T01:04:39.112Z,22.70
2022-12-11T01:07:09.512Z,20.50
2022-12-11T01:09:57.422Z,20.80
2022-12-11T01:12:28.735Z,18.80
2022-12-11T01:14:59.250Z,21.80
2022-12-11T01:17:29.722Z,23.90
2022-12-11T01:20:00.157Z,19.90
2022-12-11T01:22:30.979Z,22.30
2022-12-11T01:25:01.402Z,23.40
2022-12-11T01:27:31.830Z,25.20
2022-12-11T01:30:02.327Z,26.00
2022-12-11T01:32:34.499Z,23.20
2022-12-11T01:35:05.741Z,19.50
2022-12-11T01:37:36.283Z,19.30
2022-12-11T01:40:09.192Z,22.10
2022-12-11T01:42:40.033Z,21.20
2022-12-11T01:45:32.003Z,18.00
2022-12-11T01:48:09.535Z,17.20
2022-12-11T01:50:45.127Z,18.90
2022-12-11T01:53:21.757Z,16.90
2022-12-11T01:55:56.163Z,19.70
2022-12-11T01:58:30.807Z,22.10
2022-12-11T02:01:02.094Z,18.60
2022-12-11T02:03:32.770Z,15.90
2022-12-11T02:06:03.535Z,18.30
2022-12-11T02:08:34.225Z,18.20
2022-12-11T02:11:13.657Z,19.70
2022-12-11T02:13:51.682Z,19.20
2022-12-11T02:16:27.344Z,18.30
2022-12-11T02:19:04.176Z,20.10
2022-12-11T02:21:40.368Z,22.20
2022-12-11T02:24:42.156Z,22.70
2022-12-11T02:27:24.894Z,20.30
2022-12-11T02:30:00.033Z,16.30
2022-12-11T02:32:36.967Z,20.30
2022-12-11T02:35:14.757Z,17.90
2022-12-11T02:37:49.182Z,18.00
2022-12-11T02:40:25.851Z,15.80
2022-12-11T02:42:59.190Z,16.10
2022-12-11T02:45:32.219Z,17.40
2022-12-11T02:48:06.613Z,17.40
2022-12-11T02:50:40.431Z,17.20
2022-12-11T02:53:13.875Z,16.40
2022-12-11T02:55:48.781Z,17.00
2022-12-11T02:58:23.280Z,17.10
2022-12-11T03:00:53.855Z,14.60
2022-12-11T03:03:24.414Z,18.00
2022-12-11T03:05:55.329Z,20.20
2022-12-11T03:08:26.328Z,20.50
2022-12-11T03:10:56.898Z,16.50
2022-12-11T03:13:27.406Z,16.00
2022-12-11T03:16:13.627Z,19.50
2022-12-11T03:18:52.225Z,20.90
2022-12-11T03:21:29.735Z,18.60
2022-12-11T03:24:08.047Z,20.00
2022-12-11T03:26:43.494Z,19.20
2022-12-11T03:29:21.057Z,17.70
2022-12-11T03:31:57.725Z,19.10
2022-12-11T03:34:32.484Z,19.40
2022-12-11T03:37:04.457Z,18.80
2022-12-11T03:39:38.902Z,19.00
2022-12-11T03:42:13.130Z,16.80
2022-12-11T03:44:48.692Z,17.10
2022-12-11T03:47:22.561Z,15.40
2022-12-11T03:49:55.981Z,18.00
2022-12-11T03:52:29.023Z,13.30
2022-12-11T03:55:02.943Z,18.70
2022-12-11T03:57:37.269Z,18.70
2022-12-11T04:00:12.231Z,17.70
2022-12-11T04:02:43.123Z,15.70
2022-12-11T04:05:14.588Z,17.20
2022-12-11T04:07:45.154Z,17.40
2022-12-11T04:10:15.890Z,20.60
2022-12-11T04:12:46.379Z,21.90
2022-12-11T04:15:17.087Z,20.80
2022-12-11T04:18:13.470Z,20.20
2022-12-11T04:21:01.353Z,18.70
2022-12-11T04:23:50.041Z,18.30
2022-12-11T04:26:21.927Z,17.50
2022-12-11T04:28:52.947Z,17.70
2022-12-11T04:31:25.247Z,19.70
2022-12-11T04:33:55.803Z,17.30
2022-12-11T04:36:26.255Z,18.10
2022-12-11T04:38:56.688Z,15.90
2022-12-11T04:41:27.176Z,18.80
2022-12-11T04:43:57.587Z,14.90
2022-12-11T04:46:28.037Z,19.30
2022-12-11T04:49:00.250Z,16.50
2022-12-11T04:51:31.028Z,18.40
2022-12-11T04:54:02.040Z,17.10
2022-12-11T04:56:32.487Z,15.30
2022-12-11T04:59:03.486Z,15.20
2022-12-11T05:01:33.999Z,16.80
2022-12-11T05:04:04.594Z,15.50
2022-12-11T05:06:35.054Z,13.60
2022-12-11T05:09:05.627Z,16.30
2022-12-11T05:11:37.354Z,17.70
2022-12-11T05:14:07.870Z,18.40
2022-12-11T05:16:38.433Z,17.00
2022-12-11T05:19:08.866Z,17.40
2022-12-11T05:21:39.323Z,14.10
2022-12-11T05:24:11.122Z,13.80
2022-12-11T05:26:41.549Z,16.20
2022-12-11T05:29:12.301Z,17.10
2022-12-11T05:31:42.833Z,15.80
2022-12-11T05:34:13.369Z,14.90
2022-12-11T05:36:43.823Z,15.80
2022-12-11T05:39:14.622Z,14.30
2022-12-11T05:41:45.165Z,14.40
2022-12-11T05:44:15.992Z,15.10
2022-12-11T05:46:46.480Z,14.20
2022-12-11T05:49:19.855Z,15.90
2022-12-11T05:51:50.763Z,13.90
2022-12-11T05:54:21.178Z,16.40
2022-12-11T05:56:52.231Z,17.90
2022-12-11T05:59:23.446Z,16.60
2022-12-11T06:01:53.957Z,12.20
2022-12-11T06:04:24.466Z,17.30
2022-12-11T06:06:56.298Z,13.30
2022-12-11T06:09:26.763Z,15.30
2022-12-11T06:11:57.177Z,16.10
2022-12-11T06:14:27.655Z,17.20
2022-12-11T06:16:58.093Z,15.20
2022-12-11T06:19:31.998Z,16.50
2022-12-11T06:22:07.063Z,15.00
2022-12-11T06:24:37.537Z,13.50
2022-12-11T06:27:09.156Z,14.70
2022-12-11T06:29:39.561Z,14.60
2022-12-11T06:32:10.503Z,12.50
2022-12-11T06:34:40.925Z,14.40
2022-12-11T06:37:11.843Z,14.00
2022-12-11T06:39:42.236Z,13.50
2022-12-11T06:42:13.453Z,13.50
2022-12-11T06:44:43.892Z,15.40
2022-12-11T06:47:14.642Z,14.40
2022-12-11T06:49:45.061Z,12.50
2022-12-11T06:52:18.569Z,14.80
2022-12-11T06:54:49.580Z,12.00
2022-12-11T06:57:20.458Z,14.00
2022-12-11T06:59:51.008Z,13.60
2022-12-11T07:02:22.385Z,13.80
2022-12-11T07:04:55.297Z,12.30
2022-12-11T07:07:26.013Z,13.50
2022-12-11T07:09:56.449Z,12.00
2022-12-11T07:12:26.887Z,15.00
2022-12-11T07:14:58.350Z,15.60
2022-12-11T07:17:29.458Z,17.10
2022-12-11T07:20:00.208Z,15.60
2022-12-11T07:22:31.033Z,17.30
2022-12-11T07:25:01.676Z,14.40
2022-12-11T07:27:32.178Z,14.80
2022-12-11T07:30:02.693Z,12.90
2022-12-11T07:32:33.194Z,12.60
2022-12-11T07:35:03.984Z,15.50
2022-12-11T07:37:34.410Z,13.40
2022-12-11T07:40:05.352Z,12.60
2022-12-11T07:42:35.882Z,13.10
2022-12-11T07:45:07.540Z,13.00
2022-12-11T07:47:38.002Z,12.50
2022-12-11T07:50:10.667Z,12.40
2022-12-11T07:52:41.115Z,12.60
2022-12-11T07:55:12.721Z,12.90
2022-12-11T07:57:43.367Z,11.60
2022-12-11T08:00:15.381Z,10.20
2022-12-11T08:02:45.892Z,12.20
2022-12-11T08:05:16.722Z,12.40
2022-12-11T08:07:47.249Z,13.70
2022-12-11T08:10:18.344Z,16.80
2022-12-11T08:12:48.749Z,13.70
2022-12-11T08:15:19.506Z,11.70
2022-12-11T08:17:49.953Z,12.80
2022-12-11T08:20:20.510Z,14.50
2022-12-11T08:22:55.922Z,12.40
2022-12-11T08:25:29.449Z,11.20
2022-12-11T08:27:59.896Z,13.30
2022-12-11T08:30:30.547Z,15.30
2022-12-11T08:33:01.428Z,16.00
2022-12-11T08:35:31.896Z,13.30
2022-12-11T08:38:02.384Z,14.80
2022-12-11T08:40:32.847Z,15.40
2022-12-11T08:43:03.302Z,13.80
2022-12-11T08:45:33.763Z,9.60
2022-12-11T08:48:04.913Z,11.50
2022-12-11T08:50:35.323Z,10.40
2022-12-11T08:53:06.639Z,10.00
2022-12-11T08:55:37.214Z,11.70
2022-12-11T08:58:07.723Z,11.30
2022-12-11T09:00:38.483Z,14.40
2022-12-11T09:03:12.971Z,11.80
2022-12-11T09:05:43.843Z,10.80
2022-12-11T09:08:14.603Z,10.30
2022-12-11T09:10:45.244Z,10.40
2022-12-11T09:13:16.059Z,10.90
2022-12-11T09:15:46.542Z,10.10
2022-12-11T09:18:17.011Z,10.90
2022-12-11T09:20:47.570Z,11.10
2022-12-11T09:23:18.035Z,12.70
2022-12-11T09:25:48.595Z,12.60
2022-12-11T09:28:20.102Z,6.90
2022-12-11T09:30:50.925Z,13.60
2022-12-11T09:33:21.413Z,11.30
2022-12-11T09:36:01.093Z,14.30
2022-12-11T09:38:33.298Z,12.00
2022-12-11T09:41:16.555Z,14.00
2022-12-11T09:43:51.788Z,17.70
2022-12-11T09:46:24.823Z,10.20
2022-12-11T09:48:55.960Z,11.00
2022-12-11T09:51:30.751Z,11.10
2022-12-11T09:54:04.690Z,9.90
2022-12-11T09:56:40.452Z,9.50
2022-12-11T09:59:22.935Z,12.50
2022-12-11T10:02:04.607Z,11.90
2022-12-11T10:04:44.414Z,11.90
2022-12-11T10:07:22.621Z,11.50
2022-12-11T10:09:59.686Z,10.30
2022-12-11T10:12:43.804Z,8.40
2022-12-11T10:15:32.640Z,11.80
2022-12-11T10:18:05.524Z,10.70
2022-12-11T10:20:39.489Z,6.80
2022-12-11T10:23:22.210Z,10.00
2022-12-11T10:25:58.281Z,8.00
2022-12-11T10:28:30.809Z,12.20
2022-12-11T10:31:11.130Z,10.00
2022-12-11T10:33:51.164Z,8.70
2022-12-11T10:36:26.878Z,9.60
2022-12-11T10:38:57.472Z,7.80
2022-12-11T10:41:37.954Z,10.10
2022-12-11T10:44:18.549Z,7.60
2022-12-11T10:46:50.795Z,8.50
2022-12-11T10:49:26.466Z,8.70
2022-12-11T10:51:57.959Z,10.90
2022-12-11T10:54:38.234Z,8.30
2022-12-11T10:57:11.328Z,7.60
2022-12-11T10:59:47.441Z,8.30
2022-12-11T11:02:26.558Z,9.20
2022-12-11T11:04:58.766Z,8.90
2022-12-11T11:07:30.921Z,6.80
2022-12-11T11:10:15.997Z,9.70
2022-12-11T11:12:48.889Z,11.20
2022-12-11T11:17:55.701Z,8.00
2022-12-11T11:20:28.456Z,7.80
2022-12-11T11:23:01.138Z,8.30
2022-12-11T11:25:33.926Z,7.40
2022-12-11T11:28:07.449Z,6.10
2022-12-11T11:30:40.882Z,8.20
2022-12-11T11:33:18.833Z,8.30
2022-12-11T11:35:56.789Z,12.90
2022-12-11T11:38:31.099Z,10.50
2022-12-11T11:41:15.219Z,8.30
2022-12-11T11:43:49.211Z,8.30
2022-12-11T11:46:25.235Z,8.30
2022-12-11T11:49:06.244Z,9.60
2022-12-11T11:51:40.971Z,5.00
2022-12-11T11:54:21.715Z,7.90
2022-12-11T11:56:53.792Z,7.60
2022-12-11T11:59:29.154Z,8.80
2022-12-11T12:02:00.595Z,9.50
2022-12-11T12:04:34.931Z,8.20
2022-12-11T12:07:23.372Z,8.20
2022-12-11T12:10:00.511Z,7.20
2022-12-11T12:12:42.070Z,6.60
2022-12-11T12:15:21.993Z,10.50
2022-12-11T12:17:56.935Z,8.90
2022-12-11T12:20:35.754Z,7.50
2022-12-11T12:23:36.622Z,6.90
2022-12-11T12:26:16.792Z,6.70
2022-12-11T12:28:56.906Z,8.50
2022-12-11T12:31:56.520Z,8.00
2022-12-11T12:34:38.263Z,10.60
2022-12-11T12:37:18.558Z,9.80
2022-12-11T12:39:57.787Z,5.90
2022-12-11T12:42:39.725Z,9.50
2022-12-11T12:45:28.477Z,9.60
2022-12-11T12:47:59.085Z,7.90
2022-12-11T12:50:37.613Z,8.70
2022-12-11T12:53:12.525Z,6.90
2022-12-11T12:55:43.726Z,9.00
2022-12-11T12:58:32.027Z,10.00
2022-12-11T13:01:16.397Z,9.90
2022-12-11T13:03:58.433Z,9.20
2022-12-11T13:06:35.386Z,7.40
2022-12-11T13:09:20.429Z,10.40
2022-12-11T13:11:54.639Z,13.30
2022-12-11T13:14:31.889Z,8.80
2022-12-11T13:17:25.391Z,8.20
2022-12-11T13:20:15.293Z,8.40
2022-12-11T13:22:55.188Z,7.70
2022-12-11T13:25:29.760Z,8.80
2022-12-11T13:28:21.904Z,7.50
2022-12-11T13:31:06.110Z,6.20
2022-12-11T13:33:44.054Z,5.00
2022-12-11T13:36:35.062Z,8.20
2022-12-11T13:39:17.265Z,9.00
2022-12-11T13:41:51.523Z,8.00
2022-12-11T13:44:25.921Z,8.50
2022-12-11T13:46:59.440Z,6.90
2022-12-11T13:49:35.169Z,7.50
2022-12-11T13:52:07.930Z,7.20
2022-12-11T13:57:20.922Z,4.20
2022-12-11T13:59:53.735Z,7.10
2022-12-11T14:02:29.213Z,7.70
2022-12-11T14:05:04.833Z,6.90
2022-12-11T14:07:39.416Z,9.00
2022-12-11T14:10:17.211Z,8.90
2022-12-11T14:12:54.573Z,7.40
2022-12-11T14:15:26.023Z,7.90
2022-12-11T14:17:57.835Z,5.10
2022-12-11T14:20:31.130Z,7.00
2022-12-11T14:23:09.555Z,7.60
2022-12-11T14:25:39.991Z,8.00
2022-12-11T14:28:18.472Z,9.70
2022-12-11T14:30:51.460Z,6.90
2022-12-11T14:33:26.151Z,8.20
2022-12-11T14:35:58.206Z,6.40
2022-12-11T14:38:35.094Z,6.20
2022-12-11T14:41:14.279Z,8.90
2022-12-11T14:43:49.349Z,7.30
2022-12-11T14:46:23.581Z,6.80
2022-12-11T14:49:01.603Z,6.50
2022-12-11T14:51:36.147Z,7.30
2022-12-11T14:54:08.760Z,7.40
2022-12-11T14:56:39.965Z,7.30
2022-12-11T14:59:26.979Z,7.80
2022-12-11T15:02:19.557Z,7.00
2022-12-11T15:05:03.517Z,6.30
2022-12-11T15:07:35.028Z,7.50
2022-12-11T15:10:07.924Z,7.00
2022-12-11T15:12:46.702Z,6.50
2022-12-11T15:15:19.476Z,6.20
2022-12-11T15:20:30.681Z,7.20
2022-12-11T15:23:03.361Z,6.00
2022-12-11T15:28:03.761Z,7.00
2022-12-11T15:30:36.359Z,7.90
2022-12-11T15:33:22.058Z,4.10
2022-12-11T15:36:02.533Z,6.30
2022-12-11T15:38:40.608Z,7.10
2022-12-11T15:41:14.780Z,8.10
2022-12-11T15:43:46.341Z,7.70
2022-12-11T15:46:16.817Z,6.50
2022-12-11T15:48:48.584Z,5.00
2022-12-11T15:51:19.434Z,7.40
2022-12-11T15:53:49.962Z,4.10
2022-12-11T15:56:20.782Z,5.30
2022-12-11T15:58:52.045Z,6.90
2022-12-11T16:01:22.620Z,6.50
2022-12-11T16:03:53.105Z,5.50
2022-12-11T16:06:23.619Z,6.40
2022-12-11T16:08:54.055Z,5.90
2022-12-11T16:11:24.484Z,6.70
2022-12-11T16:13:55.207Z,7.00
2022-12-11T16:16:25.784Z,6.90
2022-12-11T16:18:56.322Z,6.20
2022-12-11T16:21:26.816Z,7.30
2022-12-11T16:23:57.344Z,6.80
2022-12-11T16:26:27.854Z,6.20
2022-12-11T16:28:58.292Z,6.50
2022-12-11T16:31:29.065Z,3.70
2022-12-11T16:33:59.534Z,5.40
2022-12-11T16:36:30.011Z,7.50
2022-12-11T16:39:00.556Z,7.20
2022-12-11T16:41:31.109Z,6.20
2022-12-11T16:44:04.024Z,7.70
2022-12-11T16:46:34.602Z,5.60
2022-12-11T16:49:05.406Z,6.50
2022-12-11T16:51:35.874Z,5.50
2022-12-11T16:54:07.079Z,7.00
2022-12-11T16:56:37.623Z,7.30
2022-12-11T16:59:08.749Z,7.10
2022-12-11T17:01:39.866Z,7.00
2022-12-11T17:04:10.931Z,10.50
2022-12-11T17:06:41.567Z,5.00
2022-12-11T17:09:12.103Z,9.20
2022-12-11T17:11:42.633Z,7.30
2022-12-11T17:14:13.190Z,6.50
2022-12-11T17:16:43.685Z,8.30
2022-12-11T17:19:14.196Z,7.10
2022-12-11T17:21:49.974Z,4.30
2022-12-11T17:24:22.868Z,7.60
2022-12-11T17:26:53.878Z,4.30
2022-12-11T17:29:24.430Z,7.80
2022-12-11T17:31:55.062Z,9.40
2022-12-11T17:34:25.546Z,5.50
2022-12-11T17:36:55.941Z,9.20
2022-12-11T17:39:26.413Z,9.90
2022-12-11T17:41:56.862Z,5.00
2022-12-11T17:44:30.473Z,8.40
2022-12-11T17:47:06.060Z,7.70
2022-12-11T17:49:40.359Z,9.70
2022-12-11T17:52:11.061Z,8.10
2022-12-11T17:54:41.855Z,8.50
2022-12-11T17:57:12.444Z,9.00
2022-12-11T17:59:42.928Z,6.70
2022-12-11T18:02:13.574Z,7.80
2022-12-11T18:04:44.063Z,6.90
2022-12-11T18:07:14.545Z,9.60
2022-12-11T18:09:46.100Z,11.10
2022-12-11T18:12:16.754Z,5.90
2022-12-11T18:14:47.278Z,8.60
2022-12-11T18:17:17.751Z,6.60
2022-12-11T18:19:48.166Z,8.80
2022-12-11T18:22:19.582Z,9.10
2022-12-11T18:24:50.031Z,6.80
2022-12-11T18:27:20.468Z,9.40
2022-12-11T18:29:50.937Z,8.80
2022-12-11T18:32:21.430Z,8.70
2022-12-11T18:34:51.961Z,10.80
2022-12-11T18:37:27.739Z,7.70
2022-12-11T18:39:58.623Z,9.30
2022-12-11T18:42:33.028Z,10.40
2022-12-11T18:45:04.180Z,12.90
2022-12-11T18:47:34.711Z,9.20
2022-12-11T18:50:07.918Z,5.80
2022-12-11T18:52:39.048Z,10.80
2022-12-11T18:55:10.765Z,5.80
2022-12-11T18:57:41.552Z,13.60
2022-12-11T19:00:14.510Z,12.90
2022-12-11T19:02:44.930Z,9.50
2022-12-11T19:05:15.785Z,8.30
2022-12-11T19:07:46.293Z,10.30
2022-12-11T19:10:16.815Z,9.30
2022-12-11T19:12:47.280Z,7.50
2022-12-11T19:15:23.387Z,9.70
2022-12-11T19:17:54.388Z,10.50
2022-12-11T19:20:48.019Z,8.00
2022-12-11T19:23:15.612Z,8.40
2022-12-11T19:25:48.087Z,10.90
2022-12-11T19:28:19.142Z,9.80
2022-12-11T19:30:50.609Z,11.70
2022-12-11T19:33:21.123Z,8.80
2022-12-11T19:36:00.886Z,9.40
2022-12-11T19:38:31.369Z,9.50
2022-12-11T19:41:05.614Z,8.50
2022-12-11T19:43:36.705Z,8.10
2022-12-11T19:46:08.889Z,11.20
2022-12-11T19:48:41.425Z,14.00
2022-12-11T19:51:14.375Z,13.00
2022-12-11T19:53:46.530Z,10.90
2022-12-11T19:56:18.084Z,10.60
2022-12-11T19:58:49.959Z,9.50
2022-12-11T20:01:26.513Z,10.00
2022-12-11T20:03:59.567Z,9.20
2022-12-11T20:06:32.508Z,6.10
2022-12-11T20:09:04.141Z,10.00
2022-12-11T20:11:35.945Z,8.30
2022-12-11T20:14:06.501Z,10.80
2022-12-11T20:17:09.368Z,9.80
2022-12-11T20:19:27.891Z,7.10
2022-12-11T20:21:58.959Z,12.80
2022-12-11T20:24:29.874Z,10.50
2022-12-11T20:27:00.293Z,10.60
2022-12-11T20:29:31.953Z,7.80
2022-12-11T20:32:02.549Z,10.30
2022-12-11T20:34:33.526Z,11.80
2022-12-11T20:37:04.241Z,8.70
2022-12-11T20:39:35.653Z,11.80
2022-12-11T20:42:06.784Z,12.00
2022-12-11T20:44:37.198Z,10.90
2022-12-11T20:47:07.915Z,8.10
2022-12-11T20:49:38.544Z,10.60
2022-12-11T20:52:09.195Z,9.00
2022-12-11T20:54:39.815Z,10.70
2022-12-11T20:57:11.156Z,7.60
2022-12-11T20:59:41.799Z,8.70
2022-12-11T21:02:13.763Z,10.40
2022-12-11T21:04:44.375Z,8.70
2022-12-11T21:07:14.875Z,8.90
2022-12-11T21:09:45.391Z,9.40
2022-12-11T21:12:15.874Z,11.70
2022-12-11T21:14:46.273Z,12.00
2022-12-11T21:17:16.680Z,11.30
2022-12-11T21:19:47.156Z,10.50
2022-12-11T21:22:17.829Z,9.00
2022-12-11T21:24:48.319Z,6.30
2022-12-11T21:27:18.797Z,11.20
2022-12-11T21:29:49.583Z,12.60
2022-12-11T21:32:21.957Z,6.70
2022-12-11T21:34:55.466Z,15.40
2022-12-11T21:37:25.930Z,10.10
2022-12-11T21:40:00.310Z,9.60
2022-12-11T21:42:30.938Z,9.80
2022-12-11T21:47:51.992Z,10.00
2022-12-11T21:50:22.420Z,10.90
2022-12-11T21:52:53.561Z,11.00
2022-12-11T21:55:24.067Z,10.90
2022-12-11T21:57:56.526Z,12.60
2022-12-11T22:00:28.299Z,9.20
2022-12-11T22:02:58.747Z,10.80
2022-12-11T22:05:29.259Z,9.60
2022-12-11T22:07:59.710Z,13.10
2022-12-11T22:10:30.617Z,13.40
2022-12-11T22:13:01.074Z,13.20
2022-12-11T22:15:31.596Z,11.10
2022-12-11T22:18:02.033Z,11.60
2022-12-11T22:20:32.520Z,12.40
2022-12-11T22:23:03.642Z,10.40
2022-12-11T22:25:34.077Z,10.50
2022-12-11T22:28:05.344Z,10.80
2022-12-11T22:30:35.915Z,8.10
2022-12-11T22:33:06.958Z,10.20
2022-12-11T22:35:37.397Z,9.10
2022-12-11T22:38:08.167Z,9.70
2022-12-11T22:40:42.493Z,10.20
2022-12-11T22:43:12.925Z,10.30
2022-12-11T22:45:43.403Z,8.80
2022-12-11T22:48:13.875Z,13.70
2022-12-11T22:50:44.504Z,14.80
2022-12-11T22:53:15.157Z,14.00
2022-12-11T22:55:45.882Z,11.20
2022-12-11T22:58:21.613Z,11.90
2022-12-11T23:00:52.451Z,10.90
2022-12-11T23:03:22.963Z,10.30
2022-12-11T23:05:53.538Z,9.90
2022-12-11T23:08:26.405Z,6.30
2022-12-11T23:10:56.981Z,10.30
2022-12-11T23:13:27.486Z,10.20
2022-12-11T23:15:57.957Z,11.20
2022-12-11T23:18:28.440Z,10.50
2022-12-11T23:20:58.914Z,9.80
2022-12-11T23:23:29.810Z,11.80
2022-12-11T23:26:00.688Z,11.00
2022-12-11T23:28:31.129Z,11.80
2022-12-11T23:31:01.657Z,11.50
2022-12-11T23:33:32.261Z,12.90
2022-12-11T23:36:03.060Z,17.10
2022-12-11T23:38:34.038Z,15.20
2022-12-11T23:41:05.672Z,13.90
2022-12-11T23:43:37.228Z,13.00
2022-12-11T23:46:12.834Z,11.80
2022-12-11T23:48:43.842Z,12.60
2022-12-11T23:51:17.416Z,9.40
2022-12-11T23:53:48.694Z,10.50
2022-12-11T23:56:22.026Z,8.90
2022-12-11T23:58:52.889Z,9.80
